createdAt,value
2023-06-11T00:00:16.881Z,94.95
2023-06-11T00:06:21.618Z,95.38
2023-06-11T00:12:23.819Z,95.40
2023-06-11T00:18:26.350Z,94.28
2023-06-11T00:24:28.371Z,95.64
2023-06-11T00:30:31.095Z,96.60
2023-06-11T00:36:34.325Z,96.56
2023-06-11T00:42:37.544Z,96.20
2023-06-11T00:48:39.837Z,96.90
2023-06-11T00:54:43.277Z,96.18
2023-06-11T01:00:55.704Z,95.25
2023-06-11T01:07:01.004Z,96.86
2023-06-11T01:13:02.964Z,95.51
2023-06-11T01:19:38.584Z,94.99
2023-06-11T01:25:45.391Z,95.37
2023-06-11T01:31:47.636Z,95.98
2023-06-11T01:37:56.639Z,95.72
2023-06-11T01:43:58.689Z,95.91
2023-06-11T01:50:00.738Z,95.75
2023-06-11T01:56:03.432Z,96.30
2023-06-11T02:02:05.602Z,98.24
2023-06-11T02:08:07.618Z,97.30
2023-06-11T02:14:09.608Z,97.78
2023-06-11T02:20:13.243Z,98.41
2023-06-11T02:26:15.256Z,97.48
2023-06-11T02:32:17.261Z,96.93
2023-06-11T02:38:19.211Z,97.23
2023-06-11T02:44:22.667Z,97.95
2023-06-11T02:50:24.695Z,97.32
2023-06-11T02:56:27.614Z,98.48
2023-06-11T03:02:29.616Z,97.71
2023-06-11T03:08:31.619Z,97.45
2023-06-11T03:14:33.595Z,96.13
2023-06-11T03:20:35.567Z,96.84
2023-06-11T03:26:37.544Z,96.64
2023-06-11T03:32:41.142Z,97.58
2023-06-11T03:38:43.164Z,98.56
2023-06-11T03:44:45.130Z,99.31
2023-06-11T03:50:47.137Z,98.93
2023-06-11T03:56:49.249Z,99.38
2023-06-11T04:02:51.504Z,99.43
2023-06-11T04:08:53.684Z,99.50
2023-06-11T04:14:55.911Z,98.64
2023-06-11T04:20:58.038Z,98.49
2023-06-11T04:27:00.896Z,98.14
2023-06-11T04:33:05.670Z,97.31
2023-06-11T04:39:09.073Z,97.06
2023-06-11T04:45:12.483Z,94.40
2023-06-11T04:51:17.781Z,93.22
2023-06-11T04:57:19.761Z,91.76
2023-06-11T05:03:23.038Z,90.29
2023-06-11T05:09:25.456Z,89.93
2023-06-11T05:15:27.636Z,89.46
2023-06-11T05:21:29.691Z,88.19
2023-06-11T05:27:32.921Z,87.47
2023-06-11T05:33:34.912Z,88.64
2023-06-11T05:39:36.925Z,84.46
2023-06-11T05:45:50.958Z,85.31
2023-06-11T05:51:53.559Z,83.09
2023-06-11T05:57:55.795Z,82.10
2023-06-11T06:03:57.879Z,77.43
2023-06-11T06:09:59.980Z,73.07
2023-06-11T06:16:01.988Z,74.67
2023-06-11T06:22:05.277Z,73.10
2023-06-11T06:28:07.258Z,70.88
2023-06-11T06:34:09.836Z,69.27
2023-06-11T06:40:13.487Z,66.80
2023-06-11T06:46:15.613Z,67.15
2023-06-11T06:52:17.580Z,66.75
2023-06-11T06:58:19.602Z,61.47
2023-06-11T07:04:21.581Z,59.32
2023-06-11T07:10:23.626Z,58.51
2023-06-11T07:16:25.685Z,56.58
2023-06-11T07:22:27.733Z,57.35
2023-06-11T07:28:29.684Z,56.82
2023-06-11T07:34:31.722Z,56.48
2023-06-11T07:40:33.694Z,56.93
2023-06-11T07:46:35.734Z,54.15
2023-06-11T07:52:37.895Z,49.94
2023-06-11T07:58:39.828Z,51.05
2023-06-11T08:04:42.257Z,46.22
2023-06-11T08:10:46.820Z,48.32
2023-06-11T08:16:49.127Z,44.62
2023-06-11T08:22:51.254Z,42.41
2023-06-11T08:28:53.547Z,44.36
2023-06-11T08:34:55.888Z,42.53
2023-06-11T08:40:58.286Z,43.63
2023-06-11T08:47:04.022Z,38.74
2023-06-11T08:53:07.736Z,39.91
2023-06-11T08:59:09.991Z,38.59
2023-06-11T09:05:12.779Z,36.69
2023-06-11T09:11:17.085Z,32.88
2023-06-11T09:17:19.119Z,33.45
2023-06-11T09:23:32.104Z,31.98
2023-06-11T09:29:35.889Z,31.83
2023-06-11T09:35:45.342Z,32.82
2023-06-11T09:41:52.042Z,33.61
2023-06-11T09:47:54.252Z,30.15
2023-06-11T09:53:57.129Z,27.86
2023-06-11T10:00:00.781Z,26.42
2023-06-11T10:06:08.530Z,26.73
2023-06-11T10:12:12.792Z,27.08
2023-06-11T10:18:16.644Z,25.53
2023-06-11T10:24:29.156Z,26.52
2023-06-11T10:30:32.674Z,26.68
2023-06-11T10:36:37.200Z,27.86
2023-06-11T10:42:41.880Z,26.23
2023-06-11T10:48:55.527Z,28.32
2023-06-11T10:54:58.713Z,26.29
2023-06-11T11:01:01.225Z,27.17
2023-06-11T11:07:12.402Z,26.58
2023-06-11T11:13:14.465Z,26.89
2023-06-11T11:19:17.020Z,26.30
2023-06-11T11:25:26.680Z,28.79
2023-06-11T11:31:28.737Z,30.19
2023-06-11T11:37:31.236Z,27.60
2023-06-11T11:43:42.780Z,27.84
2023-06-11T11:49:54.464Z,30.29
2023-06-11T11:56:05.977Z,28.61
2023-06-11T12:02:10.453Z,31.74
2023-06-11T12:08:12.414Z,30.95
2023-06-11T12:14:14.359Z,30.63
2023-06-11T12:20:16.350Z,30.35
2023-06-11T12:26:19.000Z,25.67
2023-06-11T12:32:26.369Z,25.22
2023-06-11T12:38:29.327Z,24.23
2023-06-11T12:44:32.307Z,24.24
2023-06-11T12:50:34.282Z,23.00
2023-06-11T12:56:36.235Z,19.87
2023-06-11T13:02:39.867Z,21.01
2023-06-11T13:08:41.900Z,22.07
2023-06-11T13:14:44.573Z,21.75
2023-06-11T13:20:47.182Z,23.05
2023-06-11T13:26:49.348Z,20.26
2023-06-11T13:32:52.336Z,24.02
2023-06-11T13:38:54.365Z,22.82
2023-06-11T13:44:56.669Z,20.84
2023-06-11T13:50:58.890Z,20.00
2023-06-11T13:57:01.942Z,19.78
2023-06-11T14:03:04.963Z,20.32
2023-06-11T14:09:07.226Z,19.44
2023-06-11T14:15:09.905Z,19.04
2023-06-11T14:21:11.837Z,19.29
2023-06-11T14:27:14.345Z,18.67
2023-06-11T14:33:16.335Z,18.91
2023-06-11T14:39:19.602Z,19.71
2023-06-11T14:45:21.555Z,19.80
2023-06-11T14:51:24.142Z,21.73
2023-06-11T14:57:26.722Z,20.65
2023-06-11T15:03:28.742Z,22.62
2023-06-11T15:09:31.080Z,21.83
2023-06-11T15:15:33.032Z,26.12
2023-06-11T15:21:34.972Z,24.32
2023-06-11T15:27:36.963Z,23.13
2023-06-11T15:33:39.198Z,22.78
2023-06-11T15:39:41.254Z,21.54
2023-06-11T15:45:43.266Z,23.02
2023-06-11T15:51:47.705Z,22.31
2023-06-11T15:57:51.448Z,22.90
2023-06-11T16:03:53.950Z,24.18
2023-06-11T16:09:55.997Z,22.29
2023-06-11T16:15:58.050Z,23.30
2023-06-11T16:22:00.173Z,22.38
2023-06-11T16:28:02.234Z,22.58
2023-06-11T16:34:04.216Z,21.54
2023-06-11T16:40:07.627Z,19.66
2023-06-11T16:46:09.637Z,18.70
2023-06-11T16:52:11.653Z,19.64
2023-06-11T16:58:13.593Z,18.45
2023-06-11T17:04:15.773Z,18.71
2023-06-11T17:10:17.854Z,17.20
2023-06-11T17:16:20.430Z,17.38
2023-06-11T17:22:24.229Z,16.74
2023-06-11T17:28:26.297Z,16.43
2023-06-11T17:34:28.291Z,16.93
2023-06-11T17:40:30.319Z,15.98
2023-06-11T17:46:32.677Z,17.34
2023-06-11T17:52:34.935Z,17.40
2023-06-11T17:58:40.780Z,18.94
2023-06-11T18:04:42.889Z,18.29
2023-06-11T18:10:44.947Z,18.97
2023-06-11T18:16:47.078Z,20.52
2023-06-11T18:22:49.214Z,21.16
2023-06-11T18:28:51.171Z,21.32
2023-06-11T18:34:53.099Z,24.40
2023-06-11T18:40:55.276Z,26.00
2023-06-11T18:47:01.936Z,28.27
2023-06-11T18:53:03.920Z,33.36
2023-06-11T18:59:05.926Z,38.00
2023-06-11T19:05:08.896Z,39.59
2023-06-11T19:11:10.925Z,42.70
2023-06-11T19:17:13.146Z,44.12
2023-06-11T19:23:21.689Z,50.32
2023-06-11T19:29:23.668Z,51.01
2023-06-11T19:35:26.105Z,51.25
2023-06-11T19:41:30.300Z,53.24
2023-06-11T19:47:33.709Z,52.53
2023-06-11T19:53:35.695Z,52.38
2023-06-11T19:59:40.820Z,51.11
2023-06-11T20:05:43.161Z,51.47
2023-06-11T20:11:53.729Z,52.53
2023-06-11T20:18:05.285Z,52.78
2023-06-11T20:24:08.206Z,54.33
2023-06-11T20:30:13.950Z,54.28
2023-06-11T20:36:17.664Z,53.20
2023-06-11T20:42:19.678Z,53.36
2023-06-11T20:48:22.112Z,54.17
2023-06-11T20:54:24.099Z,55.39
2023-06-11T21:00:26.188Z,55.09
2023-06-11T21:06:28.110Z,55.15
2023-06-11T21:12:30.016Z,55.51
2023-06-11T21:18:32.043Z,55.99
2023-06-11T21:24:34.049Z,55.39
2023-06-11T21:30:37.987Z,54.40
2023-06-11T21:36:39.947Z,54.08
2023-06-11T21:42:41.893Z,53.24
2023-06-11T21:48:46.020Z,53.41
2023-06-11T21:54:48.565Z,53.46
2023-06-11T22:00:50.518Z,53.02
2023-06-11T22:06:53.758Z,53.18
2023-06-11T22:13:09.550Z,55.35
2023-06-11T22:19:11.679Z,56.83
2023-06-11T22:25:14.516Z,57.10
2023-06-11T22:31:18.955Z,56.98
2023-06-11T22:37:20.989Z,58.64
2023-06-11T22:43:22.972Z,58.78
2023-06-11T22:49:29.394Z,61.57
2023-06-11T22:55:31.501Z,61.83
2023-06-11T23:01:33.910Z,62.95
2023-06-11T23:07:36.554Z,64.32
2023-06-11T23:13:38.496Z,64.70
2023-06-11T23:19:42.402Z,65.29
2023-06-11T23:25:45.584Z,65.86
2023-06-11T23:31:47.693Z,65.39
2023-06-11T23:37:52.543Z,64.57
2023-06-11T23:43:56.346Z,65.76
2023-06-11T23:49:59.318Z,66.11
2023-06-11T23:56:02.922Z,66.82
